Date,TemperatureHighF,TemperatureAvgF,TemperatureLowF,DewpointHighF,DewpointAvgF,DewpointLowF,HumidityHigh,HumidityAvg,HumidityLow,PressureMaxIn,PressureMinIn,WindSpeedMaxMPH,WindSpeedAvgMPH,GustSpeedMaxMPH,PrecipitationSumIn
2013-10-1,71,70,69,71,70,69,100,100,99,0.00,40.00,2,2,6,0.04
2013-10-2,83,73,69,74,71,69,100,93,68,0.00,40.00,3,2,10,0.03
2013-10-3,84,74,68,70,68,64,100,81,55,0.00,40.00,6,3,13,0.01
2013-10-4,85,75,69,73,69,66,95,83,65,0.00,40.00,5,3,13,0.01
2013-10-5,83,75,70,74,71,68,100,88,70,0.00,40.00,5,3,12,0.07
2013-10-6,74,61,47,71,56,46,100,84,56,0.00,40.00,7,3,17,2.09
2013-10-7,67,54,46,52,48,46,100,82,49,0.00,40.00,6,2,14,0.01
2013-10-8,71,58,48,52,48,45,100,76,40,0.00,40.00,7,3,18,0.00
2013-10-9,80,64,52,64,57,49,100,81,57,0.00,40.00,5,2,10,0.00
2013-10-10,82,67,58,67,62,58,100,88,52,0.00,40.00,3,1,7,0.00
2013-10-11,81,67,56,64,60,56,100,81,45,0.00,40.00,4,2,9,0.00
2013-10-12,77,65,55,67,60,-100,100,88,68,0.00,40.00,4,1,8,0.00
2013-10-13,79,66,54,65,59,47,100,79,52,0.00,40.00,4,2,11,0.00
2013-10-14,77,63,51,63,54,45,91,75,59,0.00,40.00,5,2,9,0.00
2013-10-15,71,66,61,67,63,60,99,92,78,0.00,40.00,6,4,18,0.10
2013-10-16,65,59,50,65,58,50,100,95,86,0.00,40.00,4,2,11,0.22
2013-10-17,65,53,46,53,50,46,100,89,61,0.00,40.00,5,2,9,0.07
2013-10-18,71,56,45,54,49,45,100,83,45,0.00,40.00,5,1,10,0.01
2013-10-19,57,50,40,54,45,-100,100,87,56,0.00,40.00,6,2,18,0.15
2013-10-20,64,50,40,49,43,40,100,82,48,0.00,40.00,5,2,19,0.02
2013-10-21,69,55,44,53,48,43,100,80,45,0.00,40.00,5,2,16,0.07
2013-10-22,62,52,39,51,42,35,99,74,37,0.00,40.00,5,2,12,0.10
2013-10-23,54,45,38,48,37,33,98,76,48,0.00,40.00,7,4,19,0.01
2013-10-24,51,43,31,43,36,27,97,77,43,0.00,40.00,5,2,14,0.00
2013-10-25,53,38,27,33,28,25,98,74,34,0.00,40.00,4,1,11,0.00
2013-10-26,59,45,31,46,36,-100,100,75,49,0.00,40.00,5,2,13,0.00
2013-10-27,66,52,41,54,46,39,99,84,52,0.00,40.00,4,1,10,0.00
2013-10-28,71,58,52,58,53,-100,100,88,52,0.00,40.00,4,1,8,0.00
2013-10-29,65,57,49,62,55,49,100,94,82,0.00,40.00,5,2,12,0.01
2013-10-30,77,68,63,64,62,58,93,81,63,0.00,40.00,6,4,16,0.01
2013-10-31,69,65,58,67,62,57,98,90,71,0.00,40.00,11,7,42,0.27